Meteo Giornale » Osservazioni meteo Italia » Lecce

ore: 19:55 - Osservazioni Meteo Lecce
Lat. 40° 14' N Lon. 18° 9' E Alt. 48 metri s.l.m.

nuvoloso Europe/Rome

15 °C

Nuvoloso

Temp. 24 Ore

11 °C

20 °C

Sud

20.3 Km/h

Dew point 11 °C

Umidità 76 %

Visibilità  10 Km

Il sole sorge alle ore 05:52

Il sole tramonta alle ore 19:38

Data e Ora Cielo e Fenomeni T °C DP °C Um. % Pres. hPa Vis. km Vento km/h
Oggi h: 19:55 nuvoloso Nuvoloso 15 11 76 1018 10 S 20.3
Oggi h: 18:55 nuvoloso Nuvoloso 16 9 63 1018 10 S 29.6
Oggi h: 17:55 nuvoloso Nuvoloso 17 8 55 1018 10 S 33.3
Oggi h: 16:55 nuvoloso Nuvoloso 18 8 51 1018 10 S 29.6
Oggi h: 15:55 nuvoloso Nuvoloso 19 7 45 1019 10 S 29.6
Oggi h: 14:55 nuvoloso Nuvoloso 20 8 45 1019 10 S 31.5
Oggi h: 13:55 nuvoloso Nuvoloso 19 8 48 1019 10 S 25.9
Oggi h: 12:55 molto_nuvoloso Molto Nuvoloso 18 7 48 1019 10 S 25.9
Oggi h: 11:55 molto_nuvoloso Molto Nuvoloso 19 8 48 1020 10 S 27.8
Oggi h: 10:55 molto_nuvoloso Molto Nuvoloso 17 10 63 1020 10 S 25.9
Oggi h: 09:55 molto_nuvoloso Molto Nuvoloso 16 9 63 1020 10 S 25.9
Oggi h: 08:55 molto_nuvoloso Molto Nuvoloso 16 12 77 1020 10 S 20.3
Oggi h: 07:55 poco_nuvoloso Poco Nuvoloso 13 11 87 1020 10 S 13
Oggi h: 06:55 poco_nuvoloso Poco Nuvoloso 11 10 93 1019 10 N 5.5
Oggi h: 05:55 nuvoloso Nuvoloso 11 9 87 1019 10 SE 7.4
Oggi h: 04:55 nuvoloso Nuvoloso 11 9 87 1019 10 S/SE 11.1
Oggi h: 03:55 nuvoloso Nuvoloso 11 9 87 1020 10 SE 11.1
Oggi h: 02:55 sereno Sereno 11 9 87 1020 10 SE 11.1
Oggi h: 01:55 sereno Sereno 11 9 87 1020 10 SE 11.1
Oggi h: 00:55 sereno Sereno 11 9 87 1020 10 E/SE 9.3
Ieri h: 23:55 sereno Sereno 11 10 93 1020 10 E/SE 7.4
Ieri h: 22:55 sereno Sereno 12 10 87 1020 10 N 5.5
Ieri h: 21:55 sereno Sereno 13 11 87 1020 10 N 5.5
Ieri h: 20:55 sereno Sereno 14 12 87 1020 10 N 5.5